createdAt,value
2016-05-10T00:00:08.296Z,0
2016-05-10T00:01:08.471Z,0
2016-05-10T00:02:08.566Z,0
2016-05-10T00:03:08.616Z,0
2016-05-10T00:04:08.650Z,0
2016-05-10T00:05:08.700Z,0
2016-05-10T00:06:08.593Z,0
2016-05-10T00:07:08.846Z,0
2016-05-10T00:08:08.880Z,0
2016-05-10T00:09:08.913Z,0
2016-05-10T00:10:09.010Z,0
2016-05-10T00:11:09.060Z,0
2016-05-10T00:12:08.751Z,0
2016-05-10T00:13:09.030Z,0
2016-05-10T00:14:09.292Z,0
2016-05-10T00:15:09.336Z,0
2016-05-10T00:16:09.458Z,0
2016-05-10T00:17:09.393Z,0
2016-05-10T00:18:09.497Z,0
2016-05-10T00:19:09.702Z,0
2016-05-10T00:20:09.828Z,0
2016-05-10T00:21:09.893Z,0
2016-05-10T00:22:09.597Z,0
2016-05-10T00:23:09.968Z,0
2016-05-10T00:24:10.054Z,0
2016-05-10T00:25:10.110Z,0
2016-05-10T00:26:09.992Z,0
2016-05-10T00:27:10.219Z,0
2016-05-10T00:28:09.990Z,0
2016-05-10T00:29:10.323Z,0
2016-05-10T00:30:10.375Z,0
2016-05-10T00:31:10.473Z,0
2016-05-10T00:32:10.509Z,0
2016-05-10T00:33:10.528Z,0
2016-05-10T00:34:10.469Z,0
2016-05-10T00:35:10.691Z,0
2016-05-10T00:36:10.711Z,0
2016-05-10T00:37:10.636Z,0
2016-05-10T00:38:10.842Z,0
2016-05-10T00:39:10.861Z,0
2016-05-10T00:40:10.957Z,0
2016-05-10T00:41:10.710Z,0
2016-05-10T00:42:11.057Z,0
2016-05-10T00:43:11.107Z,0
2016-05-10T00:44:11.141Z,0
2016-05-10T00:45:11.237Z,0
2016-05-10T00:46:11.288Z,0
2016-05-10T00:47:11.305Z,0
2016-05-10T00:48:11.402Z,0
2016-05-10T00:49:11.452Z,0
2016-05-10T00:50:11.469Z,0
2016-05-10T00:51:11.566Z,0
2016-05-10T00:52:11.615Z,0
2016-05-10T00:53:11.634Z,0
2016-05-10T00:54:11.543Z,0
2016-05-10T00:55:11.749Z,0
2016-05-10T00:56:11.861Z,0
2016-05-10T00:57:11.895Z,0
2016-05-10T00:58:11.913Z,0
2016-05-10T00:59:12.275Z,0
2016-05-10T01:00:11.746Z,0
2016-05-10T01:01:11.921Z,0
2016-05-10T01:02:11.986Z,0
2016-05-10T01:03:12.067Z,0
2016-05-10T01:04:12.242Z,0
2016-05-10T01:05:12.292Z,0
2016-05-10T01:06:12.372Z,0
2016-05-10T01:07:12.406Z,0
2016-05-10T01:08:12.487Z,0
2016-05-10T01:09:12.505Z,0
2016-05-10T01:10:12.586Z,0
2016-05-10T01:11:12.792Z,0
2016-05-10T01:12:12.528Z,0
2016-05-10T01:13:12.578Z,0
2016-05-10T01:14:13.019Z,0
2016-05-10T01:15:12.881Z,0
2016-05-10T01:16:12.899Z,0
2016-05-10T01:17:12.980Z,0
2016-05-10T01:18:13.061Z,0
2016-05-10T01:19:13.063Z,0
2016-05-10T01:20:12.972Z,0
2016-05-10T01:21:13.053Z,0
2016-05-10T01:22:13.227Z,0
2016-05-10T01:23:13.152Z,0
2016-05-10T01:24:13.202Z,0
2016-05-10T01:25:13.393Z,0
2016-05-10T01:26:13.301Z,0
2016-05-10T01:27:13.554Z,0
2016-05-10T01:28:13.540Z,0
2016-05-10T01:29:13.449Z,0
2016-05-10T01:30:13.687Z,0
2016-05-10T01:31:13.720Z,0
2016-05-10T01:32:13.754Z,0
2016-05-10T01:33:13.710Z,0
2016-05-10T01:34:13.870Z,0
2016-05-10T01:35:13.965Z,0
2016-05-10T01:36:14.015Z,0
2016-05-10T01:37:14.050Z,0
2016-05-10T01:38:14.130Z,0
2016-05-10T01:39:14.195Z,0
2016-05-10T01:40:14.198Z,0
2016-05-10T01:41:14.295Z,0
2016-05-10T01:42:14.188Z,0
2016-05-10T01:43:14.222Z,0
2016-05-10T01:44:14.443Z,0
2016-05-10T01:45:14.446Z,0
2016-05-10T01:46:14.527Z,0
2016-05-10T01:47:14.608Z,0
2016-05-10T01:48:14.642Z,0
2016-05-10T01:49:14.582Z,0
2016-05-10T01:50:14.630Z,0
2016-05-10T01:51:14.649Z,0
2016-05-10T01:52:14.871Z,0
2016-05-10T01:53:14.796Z,0
2016-05-10T01:54:14.971Z,0
2016-05-10T01:55:15.019Z,0
2016-05-10T01:56:15.116Z,0
2016-05-10T01:57:14.806Z,0
2016-05-10T01:58:15.185Z,0
2016-05-10T01:59:15.312Z,0
2016-05-10T02:00:15.315Z,0
2016-05-10T02:01:15.379Z,0
2016-05-10T02:02:15.398Z,0
2016-05-10T02:03:15.337Z,0
2016-05-10T02:04:15.559Z,0
2016-05-10T02:05:15.562Z,0
2016-05-10T02:06:15.643Z,0
2016-05-10T02:07:15.724Z,0
2016-05-10T02:08:15.742Z,0
2016-05-10T02:09:15.775Z,0
2016-05-10T02:10:15.872Z,0
2016-05-10T02:11:15.891Z,0
2016-05-10T02:12:15.972Z,0
2016-05-10T02:13:15.537Z,0
2016-05-10T02:14:15.899Z,0
2016-05-10T02:15:16.152Z,0
2016-05-10T02:16:16.013Z,0
2016-05-10T02:17:16.219Z,0
2016-05-10T02:18:16.316Z,0
2016-05-10T02:19:16.366Z,0
2016-05-10T02:20:16.383Z,0
2016-05-10T02:21:16.464Z,0
2016-05-10T02:22:16.530Z,0
2016-05-10T02:23:16.391Z,0
2016-05-10T02:24:16.472Z,0
2016-05-10T02:25:16.647Z,0
2016-05-10T02:26:16.744Z,0
2016-05-10T02:27:16.762Z,0
2016-05-10T02:28:16.827Z,0
2016-05-10T02:29:16.908Z,0
2016-05-10T02:30:16.942Z,0
2016-05-10T02:31:16.976Z,0
2016-05-10T02:32:16.915Z,0
2016-05-10T02:33:17.137Z,0
2016-05-10T02:34:16.984Z,0
2016-05-10T02:35:17.221Z,0
2016-05-10T02:36:17.302Z,0
2016-05-10T02:37:17.304Z,0
2016-05-10T02:38:17.384Z,0
2016-05-10T02:39:17.450Z,0
2016-05-10T02:40:17.312Z,0
2016-05-10T02:41:17.534Z,0
2016-05-10T02:42:17.443Z,0
2016-05-10T02:43:17.648Z,0
2016-05-10T02:44:19.183Z,0
2016-05-10T02:45:17.763Z,0
2016-05-10T02:46:17.798Z,0
2016-05-10T02:47:17.706Z,0
2016-05-10T02:48:17.943Z,0
2016-05-10T02:49:17.978Z,0
2016-05-10T02:50:18.027Z,0
2016-05-10T02:51:18.091Z,0
2016-05-10T02:52:18.127Z,0
2016-05-10T02:53:18.191Z,0
2016-05-10T02:54:18.257Z,0
2016-05-10T02:55:18.291Z,0
2016-05-10T02:56:18.355Z,0
2016-05-10T02:57:18.436Z,0
2016-05-10T02:58:18.454Z,0
2016-05-10T02:59:18.520Z,0
2016-05-10T03:00:18.585Z,0
2016-05-10T03:01:18.618Z,0
2016-05-10T03:02:18.669Z,0
2016-05-10T03:03:18.765Z,0
2016-05-10T03:04:18.612Z,0
2016-05-10T03:05:18.676Z,0
2016-05-10T03:06:18.742Z,0
2016-05-10T03:07:18.948Z,0
2016-05-10T03:08:18.997Z,0
2016-05-10T03:09:19.062Z,0
2016-05-10T03:10:19.112Z,0
2016-05-10T03:11:19.161Z,0
2016-05-10T03:12:19.242Z,0
2016-05-10T03:13:19.136Z,0
2016-05-10T03:14:19.342Z,0
2016-05-10T03:15:19.406Z,0
2016-05-10T03:16:19.441Z,0
2016-05-10T03:17:19.505Z,0
2016-05-10T03:18:19.572Z,0
2016-05-10T03:19:19.589Z,0
2016-05-10T03:20:19.513Z,0
2016-05-10T03:21:19.736Z,0
2016-05-10T03:22:19.785Z,0
2016-05-10T03:23:19.818Z,0
2016-05-10T03:24:19.727Z,0
2016-05-10T03:25:19.918Z,0
2016-05-10T03:26:19.983Z,0
2016-05-10T03:27:20.049Z,0
2016-05-10T03:28:19.957Z,0
2016-05-10T03:29:19.851Z,0
2016-05-10T03:30:20.197Z,0
2016-05-10T03:31:20.246Z,0
2016-05-10T03:32:20.312Z,0
2016-05-10T03:33:20.377Z,0
2016-05-10T03:34:20.410Z,0
2016-05-10T03:35:20.023Z,0
2016-05-10T03:36:20.385Z,0
2016-05-10T03:37:20.575Z,0
2016-05-10T03:38:20.657Z,0
2016-05-10T03:39:20.548Z,0
2016-05-10T03:40:20.598Z,0
2016-05-10T03:41:20.804Z,0
2016-05-10T03:42:20.854Z,0
2016-05-10T03:43:20.904Z,0
2016-05-10T03:44:20.984Z,0
2016-05-10T03:45:21.019Z,0
2016-05-10T03:46:21.068Z,0
2016-05-10T03:47:20.945Z,0
2016-05-10T03:48:21.183Z,0
2016-05-10T03:49:21.248Z,0
2016-05-10T03:50:21.142Z,0
2016-05-10T03:51:21.363Z,0
2016-05-10T03:52:21.412Z,0
2016-05-10T03:53:21.477Z,0
2016-05-10T03:54:21.511Z,0
2016-05-10T03:55:21.561Z,0
2016-05-10T03:56:21.611Z,0
2016-05-10T03:57:21.677Z,0
2016-05-10T03:58:21.725Z,0
2016-05-10T03:59:21.696Z,0
2016-05-10T04:00:21.715Z,0
2016-05-10T04:01:21.890Z,0
2016-05-10T04:02:21.940Z,0
2016-05-10T04:03:22.004Z,0
2016-05-10T04:04:22.070Z,0
2016-05-10T04:05:21.790Z,0
2016-05-10T04:06:22.168Z,0
2016-05-10T04:07:22.218Z,0
2016-05-10T04:08:22.284Z,0
2016-05-10T04:09:22.177Z,0
2016-05-10T04:10:22.398Z,0
2016-05-10T04:11:22.432Z,0
2016-05-10T04:12:22.342Z,0
2016-05-10T04:13:22.547Z,0
2016-05-10T04:14:24.128Z,0
2016-05-10T04:15:22.662Z,0
2016-05-10T04:16:22.555Z,0
2016-05-10T04:17:22.745Z,0
2016-05-10T04:18:22.842Z,0
2016-05-10T04:19:22.891Z,0
2016-05-10T04:20:22.925Z,0
2016-05-10T04:21:22.974Z,0
2016-05-10T04:22:23.008Z,0
2016-05-10T04:23:23.105Z,0
2016-05-10T04:24:23.139Z,0
2016-05-10T04:25:23.220Z,0
2016-05-10T04:26:23.098Z,0
2016-05-10T04:27:23.007Z,0
2016-05-10T04:28:23.352Z,0
2016-05-10T04:29:24.058Z,0
2016-05-10T04:30:23.468Z,0
2016-05-10T04:31:23.518Z,0
2016-05-10T04:32:23.583Z,0
2016-05-10T04:33:23.679Z,0
2016-05-10T04:34:23.368Z,0
2016-05-10T04:35:23.716Z,0
2016-05-10T04:36:23.640Z,0
2016-05-10T04:37:23.846Z,0
2016-05-10T04:38:23.896Z,0
2016-05-10T04:39:23.960Z,0
2016-05-10T04:40:24.026Z,0
2016-05-10T04:41:23.903Z,0
2016-05-10T04:42:24.109Z,0
2016-05-10T04:43:24.175Z,0
2016-05-10T04:44:24.256Z,0
2016-05-10T04:45:24.118Z,0
2016-05-10T04:46:24.167Z,0
2016-05-10T04:47:24.388Z,0
2016-05-10T04:48:24.297Z,0
2016-05-10T04:49:24.503Z,0
2016-05-10T04:50:24.553Z,0
2016-05-10T04:51:24.462Z,0
2016-05-10T04:52:24.652Z,0
2016-05-10T04:53:24.544Z,0
2016-05-10T04:54:24.782Z,4
2016-05-10T04:55:24.660Z,0
2016-05-10T04:56:24.881Z,0
2016-05-10T04:57:24.946Z,0
2016-05-10T04:58:24.981Z,0
2016-05-10T04:59:25.749Z,0
2016-05-10T05:00:25.080Z,0
2016-05-10T05:01:25.020Z,0
2016-05-10T05:02:25.210Z,0
2016-05-10T05:03:25.260Z,0
2016-05-10T05:04:25.324Z,0
2016-05-10T05:05:25.390Z,0
2016-05-10T05:06:25.424Z,0
2016-05-10T05:07:25.348Z,0
2016-05-10T05:08:25.538Z,0
2016-05-10T05:09:25.416Z,0
2016-05-10T05:10:25.637Z,0
2016-05-10T05:11:25.688Z,0
2016-05-10T05:12:25.753Z,4
2016-05-10T05:13:25.801Z,0
2016-05-10T05:14:26.321Z,0
2016-05-10T05:15:25.932Z,0
2016-05-10T05:16:25.966Z,0
2016-05-10T05:17:26.001Z,0
2016-05-10T05:18:26.065Z,0
2016-05-10T05:19:26.131Z,0
2016-05-10T05:20:26.180Z,0
2016-05-10T05:21:26.230Z,0
2016-05-10T05:22:26.295Z,0
2016-05-10T05:23:26.344Z,4
2016-05-10T05:24:26.394Z,0
2016-05-10T05:25:26.288Z,0
2016-05-10T05:26:26.494Z,0
2016-05-10T05:27:26.574Z,0
2016-05-10T05:28:26.452Z,0
2016-05-10T05:29:26.548Z,0
2016-05-10T05:30:26.597Z,0
2016-05-10T05:31:26.772Z,4
2016-05-10T05:32:26.821Z,4
2016-05-10T05:33:26.903Z,4
2016-05-10T05:34:26.797Z,4
2016-05-10T05:35:26.830Z,4
2016-05-10T05:36:27.035Z,4
2016-05-10T05:37:26.788Z,4
2016-05-10T05:38:27.166Z,4
2016-05-10T05:39:27.200Z,4
2016-05-10T05:40:27.093Z,0
2016-05-10T05:41:27.331Z,0
2016-05-10T05:42:27.224Z,4
2016-05-10T05:43:27.101Z,4
2016-05-10T05:44:27.495Z,4
2016-05-10T05:45:27.529Z,4
2016-05-10T05:46:27.578Z,4
2016-05-10T05:47:27.503Z,4
2016-05-10T05:48:27.709Z,0
2016-05-10T05:49:27.742Z,0
2016-05-10T05:50:27.824Z,0
2016-05-10T05:51:27.561Z,0
2016-05-10T05:52:27.906Z,0
2016-05-10T05:53:27.659Z,0
2016-05-10T05:54:28.006Z,0
2016-05-10T05:55:28.071Z,4
2016-05-10T05:56:28.136Z,4
2016-05-10T05:57:28.202Z,8
2016-05-10T05:58:28.079Z,12
2016-05-10T05:59:28.788Z,16
2016-05-10T06:00:28.350Z,16
2016-05-10T06:01:28.385Z,16
2016-05-10T06:02:28.152Z,8
2016-05-10T06:03:28.499Z,16
2016-05-10T06:04:28.564Z,16
2016-05-10T06:05:28.646Z,12
2016-05-10T06:06:28.663Z,16
2016-05-10T06:07:28.729Z,12
2016-05-10T06:08:28.638Z,12
2016-05-10T06:09:28.828Z,16
2016-05-10T06:10:28.908Z,16
2016-05-10T06:11:28.957Z,16
2016-05-10T06:12:28.992Z,16
2016-05-10T06:13:29.057Z,16
2016-05-10T06:14:29.798Z,16
2016-05-10T06:15:29.157Z,16
2016-05-10T06:16:29.050Z,12
2016-05-10T06:17:29.270Z,16
2016-05-10T06:18:29.336Z,16
2016-05-10T06:19:29.370Z,16
2016-05-10T06:20:29.279Z,16
2016-05-10T06:21:29.501Z,16
2016-05-10T06:22:29.551Z,20
2016-05-10T06:23:29.584Z,20
2016-05-10T06:24:29.509Z,20
2016-05-10T06:25:29.717Z,20
2016-05-10T06:26:29.750Z,20
2016-05-10T06:27:29.672Z,20
2016-05-10T06:28:29.866Z,16
2016-05-10T06:29:30.697Z,16
2016-05-10T06:30:29.806Z,16
2016-05-10T06:31:30.031Z,16
2016-05-10T06:32:30.095Z,16
2016-05-10T06:33:30.144Z,16
2016-05-10T06:34:30.194Z,16
2016-05-10T06:35:30.260Z,20
2016-05-10T06:36:30.309Z,20
2016-05-10T06:37:30.203Z,20
2016-05-10T06:38:30.283Z,20
2016-05-10T06:39:30.457Z,20
2016-05-10T06:40:30.523Z,20
2016-05-10T06:41:30.573Z,16
2016-05-10T06:42:30.482Z,20
2016-05-10T06:43:30.516Z,20
2016-05-10T06:44:30.737Z,20
2016-05-10T06:45:30.487Z,24
2016-05-10T06:46:30.837Z,20
2016-05-10T06:47:30.886Z,24
2016-05-10T06:48:30.951Z,20
2016-05-10T06:49:31.001Z,24
2016-05-10T06:50:30.894Z,24
2016-05-10T06:51:30.975Z,28
2016-05-10T06:52:31.165Z,24
2016-05-10T06:53:31.059Z,24
2016-05-10T06:54:31.280Z,24
2016-05-10T06:55:31.328Z,28
2016-05-10T06:56:31.394Z,28
2016-05-10T06:57:31.444Z,28
2016-05-10T06:58:31.322Z,32
2016-05-10T06:59:31.246Z,32
2016-05-10T07:00:31.452Z,32
2016-05-10T07:01:31.657Z,32
2016-05-10T07:02:31.723Z,36
2016-05-10T07:03:31.600Z,36
2016-05-10T07:04:31.666Z,36
2016-05-10T07:05:31.855Z,40
2016-05-10T07:06:31.937Z,40
2016-05-10T07:07:31.830Z,40
2016-05-10T07:08:32.035Z,40
2016-05-10T07:09:32.086Z,44
2016-05-10T07:10:32.135Z,40
2016-05-10T07:11:32.059Z,44
2016-05-10T07:12:32.249Z,44
2016-05-10T07:13:32.143Z,48
2016-05-10T07:14:33.130Z,48
2016-05-10T07:15:32.415Z,48
2016-05-10T07:16:32.464Z,48
2016-05-10T07:17:32.529Z,48
2016-05-10T07:18:32.422Z,52
2016-05-10T07:19:32.629Z,52
2016-05-10T07:20:32.662Z,52
2016-05-10T07:21:32.727Z,52
2016-05-10T07:22:32.792Z,56
2016-05-10T07:23:33.404Z,52
2016-05-10T07:24:32.907Z,56
2016-05-10T07:25:32.957Z,56
2016-05-10T07:26:33.022Z,56
2016-05-10T07:27:33.056Z,56
2016-05-10T07:28:33.121Z,56
2016-05-10T07:29:33.499Z,56
2016-05-10T07:30:33.235Z,56
2016-05-10T07:31:33.129Z,56
2016-05-10T07:32:33.335Z,56
2016-05-10T07:33:33.400Z,56
2016-05-10T07:34:33.450Z,52
2016-05-10T07:35:33.483Z,56
2016-05-10T07:36:33.393Z,56
2016-05-10T07:37:33.613Z,56
2016-05-10T07:38:33.648Z,56
2016-05-10T07:39:33.541Z,60
2016-05-10T07:40:33.778Z,60
2016-05-10T07:41:33.812Z,60
2016-05-10T07:42:33.721Z,60
2016-05-10T07:43:33.771Z,60
2016-05-10T07:44:34.008Z,60
2016-05-10T07:45:34.073Z,60
2016-05-10T07:46:33.935Z,56
2016-05-10T07:47:34.140Z,56
2016-05-10T07:48:34.253Z,52
2016-05-10T07:49:34.099Z,52
2016-05-10T07:50:34.306Z,52
2016-05-10T07:51:34.417Z,56
2016-05-10T07:52:34.404Z,56
2016-05-10T07:53:34.189Z,52
2016-05-10T07:54:34.535Z,52
2016-05-10T07:55:34.600Z,44
2016-05-10T07:56:34.478Z,40
2016-05-10T07:57:34.699Z,40
2016-05-10T07:58:34.748Z,40
2016-05-10T07:59:35.205Z,44
2016-05-10T08:00:34.863Z,44
2016-05-10T08:01:34.897Z,44
2016-05-10T08:02:34.978Z,36
2016-05-10T08:03:35.011Z,40
2016-05-10T08:04:35.077Z,40
2016-05-10T08:05:35.142Z,40
2016-05-10T08:06:35.192Z,44
2016-05-10T08:07:35.226Z,52
2016-05-10T08:08:35.307Z,52
2016-05-10T08:09:35.216Z,56
2016-05-10T08:10:35.390Z,56
2016-05-10T08:11:35.455Z,52
2016-05-10T08:12:35.521Z,48
2016-05-10T08:13:35.554Z,48
2016-05-10T08:14:35.620Z,44
2016-05-10T08:15:35.701Z,32
2016-05-10T08:16:35.734Z,32
2016-05-10T08:17:35.612Z,32
2016-05-10T08:18:35.865Z,32
2016-05-10T08:19:35.915Z,36
2016-05-10T08:20:35.792Z,40
2016-05-10T08:21:35.998Z,44
2016-05-10T08:22:36.063Z,48
2016-05-10T08:23:36.113Z,56
2016-05-10T08:24:36.162Z,56
2016-05-10T08:25:36.227Z,56
2016-05-10T08:26:36.323Z,56
2016-05-10T08:27:36.311Z,56
2016-05-10T08:28:36.376Z,56
2016-05-10T08:29:37.128Z,56
2016-05-10T08:30:36.522Z,60
2016-05-10T08:31:36.478Z,56
2016-05-10T08:32:36.449Z,56
2016-05-10T08:33:36.515Z,52
2016-05-10T08:34:36.564Z,52
2016-05-10T08:35:36.785Z,52
2016-05-10T08:36:36.804Z,48
2016-05-10T08:37:36.885Z,48
2016-05-10T08:38:36.918Z,48
2016-05-10T08:39:36.983Z,48
2016-05-10T08:40:37.049Z,48
2016-05-10T08:41:36.942Z,48
2016-05-10T08:42:37.148Z,48
2016-05-10T08:43:37.213Z,48
2016-05-10T08:44:37.122Z,44
2016-05-10T08:45:37.156Z,44
2016-05-10T08:46:37.362Z,40
2016-05-10T08:47:37.255Z,44
2016-05-10T08:48:37.321Z,44
2016-05-10T08:49:37.526Z,44
2016-05-10T08:50:37.592Z,44
2016-05-10T08:51:37.626Z,48
2016-05-10T08:52:37.707Z,48
2016-05-10T08:53:37.600Z,52
2016-05-10T08:54:37.790Z,52
2016-05-10T08:55:37.871Z,48
2016-05-10T08:56:37.764Z,48
2016-05-10T08:57:37.970Z,48
2016-05-10T08:58:37.878Z,48
2016-05-10T08:59:38.303Z,44
2016-05-10T09:00:38.134Z,48
2016-05-10T09:01:38.027Z,48
2016-05-10T09:02:38.249Z,52
2016-05-10T09:03:38.297Z,48
2016-05-10T09:04:38.332Z,44
2016-05-10T09:05:38.398Z,44
2016-05-10T09:06:38.478Z,40
2016-05-10T09:07:38.513Z,44
2016-05-10T09:08:38.562Z,44
2016-05-10T09:09:38.471Z,40
2016-05-10T09:10:38.677Z,48
2016-05-10T09:11:54.399Z,48
2016-05-10T09:12:46.026Z,48
2016-05-10T09:13:38.857Z,44
2016-05-10T09:14:38.860Z,48
2016-05-10T09:15:38.971Z,52
2016-05-10T09:16:39.021Z,52
2016-05-10T09:17:39.071Z,52
2016-05-10T09:18:39.157Z,52
2016-05-10T09:19:39.249Z,48
2016-05-10T09:20:39.371Z,48
2016-05-10T09:21:39.446Z,52
2016-05-10T09:22:39.552Z,48
2016-05-10T09:23:39.604Z,52
2016-05-10T09:24:40.215Z,48
2016-05-10T09:25:39.608Z,44
2016-05-10T09:26:39.814Z,40
2016-05-10T09:27:39.753Z,40
2016-05-10T09:28:39.934Z,44
2016-05-10T09:29:40.380Z,40
2016-05-10T09:30:40.059Z,40
2016-05-10T09:31:40.131Z,36
2016-05-10T09:32:40.044Z,36
2016-05-10T09:33:40.237Z,36
2016-05-10T09:34:40.132Z,36
2016-05-10T09:35:40.370Z,40
2016-05-10T09:36:40.282Z,40
2016-05-10T09:37:40.318Z,40
2016-05-10T09:38:40.383Z,36
2016-05-10T09:39:40.606Z,36
2016-05-10T09:40:40.640Z,36
2016-05-10T09:41:40.722Z,36
2016-05-10T09:42:40.758Z,36
2016-05-10T09:43:40.650Z,36
2016-05-10T09:44:40.873Z,36
2016-05-10T09:45:40.781Z,32
2016-05-10T09:46:40.988Z,36
2016-05-10T09:47:41.023Z,32
2016-05-10T09:48:41.103Z,36
2016-05-10T09:49:41.153Z,32
2016-05-10T09:50:41.202Z,36
2016-05-10T09:51:41.251Z,36
2016-05-10T09:52:41.161Z,36
2016-05-10T09:53:41.211Z,36
2016-05-10T09:54:41.416Z,36
2016-05-10T09:55:41.309Z,36
2016-05-10T09:56:41.562Z,32
2016-05-10T09:57:41.408Z,36
2016-05-10T09:58:41.615Z,36
2016-05-10T09:59:41.961Z,36
2016-05-10T10:00:41.448Z,32
2016-05-10T10:01:41.825Z,32
2016-05-10T10:02:41.875Z,32
2016-05-10T10:03:41.925Z,32
2016-05-10T10:04:41.958Z,32
2016-05-10T10:05:42.024Z,32
2016-05-10T10:06:42.105Z,32
2016-05-10T10:07:42.138Z,32
2016-05-10T10:08:42.173Z,32
2016-05-10T10:09:42.222Z,32
2016-05-10T10:10:42.147Z,32
2016-05-10T10:11:42.197Z,32
2016-05-10T10:12:42.246Z,32
2016-05-10T10:13:42.468Z,36
2016-05-10T10:14:42.470Z,36
2016-05-10T10:15:42.566Z,32
2016-05-10T10:16:42.616Z,32
2016-05-10T10:17:42.681Z,32
2016-05-10T10:18:42.731Z,32
2016-05-10T10:19:42.780Z,28
2016-05-10T10:20:42.830Z,32
2016-05-10T10:21:42.770Z,28
2016-05-10T10:22:42.804Z,28
2016-05-10T10:23:42.837Z,28
2016-05-10T10:24:43.076Z,28
2016-05-10T10:25:43.109Z,28
2016-05-10T10:26:43.175Z,24
2016-05-10T10:27:43.068Z,24
2016-05-10T10:28:43.273Z,28
2016-05-10T10:29:43.558Z,28
2016-05-10T10:30:43.263Z,28
2016-05-10T10:31:43.453Z,28
2016-05-10T10:32:43.503Z,24
2016-05-10T10:33:43.568Z,28
2016-05-10T10:34:43.602Z,24
2016-05-10T10:35:43.652Z,24
2016-05-10T10:36:43.732Z,28
2016-05-10T10:37:43.766Z,24
2016-05-10T10:38:43.816Z,28
2016-05-10T10:39:43.880Z,24
2016-05-10T10:40:43.947Z,28
2016-05-10T10:41:43.980Z,28
2016-05-10T10:42:44.077Z,28
2016-05-10T10:43:43.971Z,24
2016-05-10T10:44:44.394Z,24
2016-05-10T10:45:44.241Z,24
2016-05-10T10:46:44.260Z,24
2016-05-10T10:47:44.340Z,28
2016-05-10T10:48:44.233Z,28
2016-05-10T10:49:44.424Z,28
2016-05-10T10:50:44.505Z,24
2016-05-10T10:51:44.398Z,24
2016-05-10T10:52:44.604Z,24
2016-05-10T10:53:44.668Z,24
2016-05-10T10:54:44.578Z,28
2016-05-10T10:55:44.595Z,24
2016-05-10T10:56:44.661Z,24
2016-05-10T10:57:44.867Z,24
2016-05-10T10:58:44.636Z,24
2016-05-10T10:59:45.451Z,24
2016-05-10T11:00:44.875Z,24
2016-05-10T11:01:45.112Z,20
2016-05-10T11:02:45.147Z,24
2016-05-10T11:03:45.040Z,24
2016-05-10T11:04:45.261Z,24
2016-05-10T11:05:45.014Z,24
2016-05-10T11:06:45.360Z,24
2016-05-10T11:07:45.425Z,24
2016-05-10T11:08:45.333Z,24
2016-05-10T11:09:45.368Z,24
2016-05-10T11:10:45.418Z,24
2016-05-10T11:11:47.171Z,20
2016-05-10T11:12:45.548Z,20
2016-05-10T11:13:45.754Z,24
2016-05-10T11:14:45.491Z,24
2016-05-10T11:15:45.868Z,24
2016-05-10T11:16:45.918Z,24
2016-05-10T11:17:45.968Z,24
2016-05-10T11:18:45.877Z,24
2016-05-10T11:19:46.082Z,24
2016-05-10T11:20:46.132Z,24
2016-05-10T11:21:46.182Z,20
2016-05-10T11:22:46.247Z,20
2016-05-10T11:23:46.281Z,20
2016-05-10T11:24:46.362Z,20
2016-05-10T11:25:46.396Z,20
2016-05-10T11:26:46.445Z,20
2016-05-10T11:27:46.370Z,20
2016-05-10T11:28:46.435Z,20
2016-05-10T11:29:46.390Z,20
2016-05-10T11:30:46.690Z,20
2016-05-10T11:31:46.599Z,20
2016-05-10T11:32:46.773Z,20
2016-05-10T11:33:46.697Z,20
2016-05-10T11:34:46.903Z,20
2016-05-10T11:35:46.953Z,20
2016-05-10T11:36:47.034Z,20
2016-05-10T11:37:47.068Z,20
2016-05-10T11:38:47.118Z,20
2016-05-10T11:39:47.183Z,20
2016-05-10T11:40:47.249Z,20
2016-05-10T11:41:47.283Z,20
2016-05-10T11:42:47.191Z,20
2016-05-10T11:43:47.256Z,20
2016-05-10T11:44:47.150Z,20
2016-05-10T11:45:47.497Z,20
2016-05-10T11:46:47.577Z,20
2016-05-10T11:47:47.596Z,20
2016-05-10T11:48:47.660Z,20
2016-05-10T11:49:47.726Z,20
2016-05-10T11:50:47.776Z,20
2016-05-10T11:51:47.856Z,20
2016-05-10T11:52:47.734Z,20
2016-05-10T11:53:47.940Z,24
2016-05-10T11:54:48.004Z,24
2016-05-10T11:55:48.085Z,24
2016-05-10T11:56:48.104Z,24
2016-05-10T11:57:48.153Z,24
2016-05-10T11:58:48.250Z,24
2016-05-10T11:59:48.112Z,24
2016-05-10T12:00:48.333Z,24
2016-05-10T12:01:48.383Z,24
2016-05-10T12:02:48.447Z,24
2016-05-10T12:03:48.497Z,24
2016-05-10T12:04:48.391Z,24
2016-05-10T12:05:48.597Z,24
2016-05-10T12:06:48.662Z,24
2016-05-10T12:07:48.555Z,24
2016-05-10T12:08:48.761Z,24
2016-05-10T12:09:48.827Z,24
2016-05-10T12:10:48.861Z,24
2016-05-10T12:11:48.925Z,24
2016-05-10T12:12:49.006Z,24
2016-05-10T12:13:49.025Z,24
2016-05-10T12:14:49.183Z,24
2016-05-10T12:15:49.155Z,24
2016-05-10T12:16:49.221Z,24
2016-05-10T12:17:49.113Z,24
2016-05-10T12:18:49.319Z,24
2016-05-10T12:19:49.385Z,24
2016-05-10T12:20:49.418Z,24
2016-05-10T12:21:49.484Z,24
2016-05-10T12:22:49.408Z,24
2016-05-10T12:23:49.598Z,24
2016-05-10T12:24:49.477Z,24
2016-05-10T12:25:49.698Z,24
2016-05-10T12:26:49.762Z,24
2016-05-10T12:27:49.672Z,24
2016-05-10T12:28:49.893Z,24
2016-05-10T12:29:49.943Z,24
2016-05-10T12:30:49.977Z,24
2016-05-10T12:31:50.056Z,24
2016-05-10T12:32:50.092Z,24
2016-05-10T12:33:50.142Z,24
2016-05-10T12:34:50.190Z,24
2016-05-10T12:35:50.115Z,20
2016-05-10T12:36:50.290Z,20
2016-05-10T12:37:50.386Z,20
2016-05-10T12:38:50.420Z,20
2016-05-10T12:39:50.313Z,20
2016-05-10T12:40:50.519Z,20
2016-05-10T12:41:50.569Z,20
2016-05-10T12:42:50.634Z,20
2016-05-10T12:43:50.527Z,24
2016-05-10T12:44:50.842Z,24
2016-05-10T12:45:50.798Z,24
2016-05-10T12:46:51.317Z,24
2016-05-10T12:47:50.897Z,20
2016-05-10T12:48:50.838Z,20
2016-05-10T12:49:50.855Z,20
2016-05-10T12:50:51.062Z,20
2016-05-10T12:51:51.143Z,20
2016-05-10T12:52:50.864Z,20
2016-05-10T12:53:51.241Z,20
2016-05-10T12:54:51.306Z,20
2016-05-10T12:55:51.341Z,20
2016-05-10T12:56:51.406Z,20
2016-05-10T12:57:51.315Z,20
2016-05-10T12:58:51.192Z,20
2016-05-10T12:59:51.836Z,20
2016-05-10T13:00:51.495Z,20
2016-05-10T13:01:51.529Z,20
2016-05-10T13:02:51.595Z,20
2016-05-10T13:03:51.487Z,16
2016-05-10T13:04:51.678Z,16
2016-05-10T13:05:51.743Z,20
2016-05-10T13:06:51.948Z,20
2016-05-10T13:07:52.014Z,20
2016-05-10T13:08:52.078Z,20
2016-05-10T13:09:51.988Z,20
2016-05-10T13:10:52.162Z,20
2016-05-10T13:11:52.071Z,20
2016-05-10T13:12:52.277Z,20
2016-05-10T13:13:52.342Z,20
2016-05-10T13:14:52.641Z,20
2016-05-10T13:15:52.457Z,20
2016-05-10T13:16:52.491Z,20
2016-05-10T13:17:52.556Z,20
2016-05-10T13:18:52.605Z,20
2016-05-10T13:19:52.655Z,16
2016-05-10T13:20:52.580Z,20
2016-05-10T13:21:52.614Z,16
2016-05-10T13:22:52.819Z,16
2016-05-10T13:23:53.212Z,16
2016-05-10T13:24:52.935Z,16
2016-05-10T13:25:52.984Z,16
2016-05-10T13:26:53.049Z,16
2016-05-10T13:27:52.942Z,16
2016-05-10T13:28:53.148Z,16
2016-05-10T13:29:53.229Z,16
2016-05-10T13:30:53.295Z,16
2016-05-10T13:31:53.297Z,16
2016-05-10T13:32:53.409Z,16
2016-05-10T13:33:53.428Z,20
2016-05-10T13:34:53.336Z,16
2016-05-10T13:35:53.386Z,20
2016-05-10T13:36:53.592Z,16
2016-05-10T13:37:53.704Z,16
2016-05-10T13:38:53.550Z,16
2016-05-10T13:39:53.818Z,16
2016-05-10T13:40:53.821Z,16
2016-05-10T13:41:53.870Z,20
2016-05-10T13:42:53.936Z,20
2016-05-10T13:44:05.282Z,20
2016-05-10T13:44:54.036Z,20
2016-05-10T13:45:54.069Z,20
2016-05-10T13:46:54.166Z,20
2016-05-10T13:47:54.230Z,20
2016-05-10T13:48:54.264Z,20
2016-05-10T13:49:54.174Z,20
2016-05-10T13:50:54.224Z,20
2016-05-10T13:51:54.429Z,20
2016-05-10T13:52:54.322Z,20
2016-05-10T13:53:54.574Z,16
2016-05-10T13:54:54.577Z,16
2016-05-10T13:55:54.471Z,16
2016-05-10T13:56:54.693Z,16
2016-05-10T13:57:54.460Z,20
2016-05-10T13:58:54.807Z,20
2016-05-10T13:59:55.372Z,20
2016-05-10T14:00:54.922Z,20
2016-05-10T14:01:54.971Z,20
2016-05-10T14:02:55.021Z,16
2016-05-10T14:03:54.930Z,16
2016-05-10T14:04:54.995Z,16
2016-05-10T14:05:55.185Z,16
2016-05-10T14:06:55.251Z,16
2016-05-10T14:07:55.301Z,16
2016-05-10T14:08:55.365Z,16
2016-05-10T14:09:55.415Z,16
2016-05-10T14:10:55.168Z,16
2016-05-10T14:11:55.373Z,16
2016-05-10T14:12:55.579Z,16
2016-05-10T14:13:55.614Z,16
2016-05-10T14:14:55.709Z,16
2016-05-10T14:15:55.728Z,16
2016-05-10T14:16:55.794Z,16
2016-05-10T14:17:55.715Z,16
2016-05-10T14:18:55.905Z,16
2016-05-10T14:19:55.642Z,16
2016-05-10T14:20:55.864Z,16
2016-05-10T14:21:56.069Z,16
2016-05-10T14:22:55.963Z,16
2016-05-10T14:23:56.185Z,16
2016-05-10T14:24:56.094Z,16
2016-05-10T14:25:56.299Z,16
2016-05-10T14:26:56.349Z,16
2016-05-10T14:27:56.413Z,16
2016-05-10T14:28:56.449Z,16